createdAt,value
2018-09-30T00:00:43.185Z,91.59
2018-09-30T00:03:12.156Z,93.03
2018-09-30T00:05:41.202Z,92.33
2018-09-30T00:08:10.257Z,91.81
2018-09-30T00:10:39.218Z,91.70
2018-09-30T00:13:09.409Z,91.80
2018-09-30T00:15:38.469Z,91.38
2018-09-30T00:18:07.814Z,91.89
2018-09-30T00:20:36.872Z,92.27
2018-09-30T00:23:05.946Z,92.30
2018-09-30T00:25:39.958Z,92.64
2018-09-30T00:28:09.070Z,93.07
2018-09-30T00:30:38.068Z,92.96
2018-09-30T00:33:07.425Z,92.16
2018-09-30T00:35:36.544Z,91.41
2018-09-30T00:38:06.285Z,91.67
2018-09-30T00:40:36.495Z,91.96
2018-09-30T00:43:05.557Z,91.66
2018-09-30T00:45:34.534Z,91.81
2018-09-30T00:48:03.783Z,91.83
2018-09-30T00:50:32.833Z,91.55
2018-09-30T00:53:01.868Z,92.94
2018-09-30T00:55:30.849Z,92.86
2018-09-30T00:57:59.945Z,92.46
2018-09-30T01:00:29.003Z,91.91
2018-09-30T01:02:58.161Z,92.94
2018-09-30T01:05:27.221Z,92.06
2018-09-30T01:07:56.352Z,91.50
2018-09-30T01:10:25.481Z,91.75
2018-09-30T01:12:54.785Z,92.27
2018-09-30T01:15:23.862Z,92.66
2018-09-30T01:17:52.866Z,93.09
2018-09-30T01:20:21.881Z,93.43
2018-09-30T01:22:51.164Z,94.11
2018-09-30T01:25:20.246Z,93.39
2018-09-30T01:27:49.246Z,93.37
2018-09-30T01:30:18.945Z,93.74
2018-09-30T01:32:47.956Z,94.23
2018-09-30T01:35:16.950Z,93.27
2018-09-30T01:37:45.952Z,93.71
2018-09-30T01:40:14.985Z,93.50
2018-09-30T01:42:43.994Z,93.47
2018-09-30T01:45:12.956Z,94.59
2018-09-30T01:47:42.037Z,94.01
2018-09-30T01:50:11.079Z,94.56
2018-09-30T01:52:52.834Z,94.38
2018-09-30T01:55:21.907Z,93.82
2018-09-30T01:57:50.898Z,93.35
2018-09-30T02:00:20.261Z,91.78
2018-09-30T02:02:49.587Z,92.41
2018-09-30T02:05:18.776Z,93.59
2018-09-30T02:07:48.802Z,93.23
2018-09-30T02:10:18.081Z,94.30
2018-09-30T02:12:47.178Z,94.78
2018-09-30T02:15:16.399Z,94.15
2018-09-30T02:17:46.373Z,94.13
2018-09-30T02:20:15.804Z,94.82
2018-09-30T02:22:44.772Z,94.18
2018-09-30T02:25:13.725Z,93.92
2018-09-30T02:27:42.820Z,93.67
2018-09-30T02:30:11.851Z,94.74
2018-09-30T02:32:46.902Z,93.69
2018-09-30T02:35:15.856Z,93.30
2018-09-30T02:37:44.855Z,94.84
2018-09-30T02:40:13.892Z,93.79
2018-09-30T02:42:42.868Z,93.66
2018-09-30T02:45:11.916Z,93.98
2018-09-30T02:47:40.936Z,93.63
2018-09-30T02:50:10.012Z,93.32
2018-09-30T02:52:38.983Z,94.18
2018-09-30T02:55:08.099Z,94.58
2018-09-30T02:57:37.098Z,93.88
2018-09-30T03:00:07.323Z,95.16
2018-09-30T03:02:36.412Z,95.35
2018-09-30T03:05:05.529Z,94.86
2018-09-30T03:07:39.618Z,94.37
2018-09-30T03:10:08.664Z,94.87
2018-09-30T03:12:37.696Z,95.38
2018-09-30T03:15:06.774Z,95.82
2018-09-30T03:17:35.743Z,96.62
2018-09-30T03:20:04.873Z,95.87
2018-09-30T03:22:34.071Z,95.83
2018-09-30T03:25:03.143Z,95.30
2018-09-30T03:27:32.211Z,94.99
2018-09-30T03:30:01.305Z,94.51
2018-09-30T03:32:30.344Z,94.81
2018-09-30T03:34:59.472Z,94.90
2018-09-30T03:37:28.747Z,95.45
2018-09-30T03:39:58.035Z,95.21
2018-09-30T03:42:27.168Z,95.44
2018-09-30T03:44:56.223Z,95.48
2018-09-30T03:47:25.246Z,96.29
2018-09-30T03:49:54.966Z,95.52
2018-09-30T03:52:24.055Z,95.84
2018-09-30T03:54:53.100Z,96.05
2018-09-30T03:57:22.255Z,95.45
2018-09-30T03:59:51.359Z,95.40
2018-09-30T04:02:20.515Z,96.16
2018-09-30T04:04:49.513Z,97.56
2018-09-30T04:07:18.485Z,96.60
2018-09-30T04:09:47.659Z,95.71
2018-09-30T04:12:16.529Z,96.21
2018-09-30T04:14:45.718Z,95.11
2018-09-30T04:17:14.872Z,94.97
2018-09-30T04:19:43.948Z,95.11
2018-09-30T04:22:13.044Z,95.81
2018-09-30T04:24:42.088Z,97.64
2018-09-30T04:27:11.171Z,96.67
2018-09-30T04:29:40.342Z,96.03
2018-09-30T04:32:09.447Z,95.98
2018-09-30T04:34:38.589Z,96.19
2018-09-30T04:37:07.951Z,95.88
2018-09-30T04:39:37.009Z,95.13
2018-09-30T04:42:06.408Z,94.72
2018-09-30T04:44:35.361Z,94.81
2018-09-30T04:47:04.429Z,94.81
2018-09-30T04:49:33.392Z,95.50
2018-09-30T04:52:02.610Z,95.72
2018-09-30T04:54:31.968Z,95.09
2018-09-30T04:57:01.595Z,95.45
2018-09-30T04:59:30.734Z,94.91
2018-09-30T05:02:00.035Z,95.27
2018-09-30T05:04:29.278Z,95.72
2018-09-30T05:06:58.437Z,96.21
2018-09-30T05:09:27.402Z,96.15
2018-09-30T05:11:56.600Z,96.05
2018-09-30T05:14:25.710Z,96.13
2018-09-30T05:16:54.805Z,97.06
2018-09-30T05:19:23.885Z,96.63
2018-09-30T05:21:53.144Z,96.11
2018-09-30T05:24:22.310Z,95.94
2018-09-30T05:26:51.439Z,96.76
2018-09-30T05:29:20.560Z,98.23
2018-09-30T05:31:49.699Z,97.70
2018-09-30T05:34:18.814Z,93.83
2018-09-30T05:36:47.990Z,80.67
2018-09-30T05:39:16.987Z,70.21
2018-09-30T05:41:46.148Z,67.39
2018-09-30T05:44:15.334Z,69.73
2018-09-30T05:46:44.327Z,65.09
2018-09-30T05:49:13.447Z,64.30
2018-09-30T05:51:42.501Z,70.95
2018-09-30T05:54:11.490Z,77.48
2018-09-30T05:56:40.514Z,83.14
2018-09-30T05:59:09.508Z,86.50
2018-09-30T06:01:38.605Z,88.15
2018-09-30T06:04:09.140Z,90.11
2018-09-30T06:06:38.485Z,90.69
2018-09-30T06:09:15.070Z,90.37
2018-09-30T06:11:45.756Z,91.55
2018-09-30T06:14:15.924Z,91.19
2018-09-30T06:16:45.325Z,90.87
2018-09-30T06:19:14.532Z,88.75
2018-09-30T06:21:43.645Z,88.85
2018-09-30T06:24:13.069Z,88.63
2018-09-30T06:26:42.231Z,88.90
2018-09-30T06:29:11.368Z,88.95
2018-09-30T06:31:40.760Z,89.09
2018-09-30T06:34:09.889Z,89.44
2018-09-30T06:36:39.245Z,89.06
2018-09-30T06:39:09.846Z,88.70
2018-09-30T06:41:39.011Z,85.57
2018-09-30T06:44:08.130Z,86.51
2018-09-30T06:46:37.342Z,85.27
2018-09-30T06:49:06.421Z,83.85
2018-09-30T06:51:36.688Z,83.20
2018-09-30T06:54:06.074Z,84.11
2018-09-30T06:56:35.246Z,85.25
2018-09-30T06:59:04.599Z,84.32
2018-09-30T07:01:33.792Z,86.02
2018-09-30T07:04:03.261Z,86.93
2018-09-30T07:06:33.235Z,88.63
2018-09-30T07:09:02.629Z,83.47
2018-09-30T07:11:31.706Z,83.24
2018-09-30T07:14:00.955Z,84.44
2018-09-30T07:16:31.238Z,83.46
2018-09-30T07:19:00.509Z,82.87
2018-09-30T07:21:30.191Z,80.63
2018-09-30T07:23:59.662Z,81.56
2018-09-30T07:26:29.250Z,80.36
2018-09-30T07:28:58.708Z,79.40
2018-09-30T07:31:28.198Z,77.96
2018-09-30T07:33:57.262Z,76.35
2018-09-30T07:36:26.265Z,73.93
2018-09-30T07:38:55.283Z,70.53
2018-09-30T07:41:24.417Z,69.91
2018-09-30T07:43:53.412Z,69.97
2018-09-30T07:46:22.774Z,70.82
2018-09-30T07:48:52.035Z,68.53
2018-09-30T07:51:21.381Z,69.04
2018-09-30T07:53:50.690Z,68.93
2018-09-30T07:56:19.784Z,68.67
2018-09-30T07:58:48.824Z,66.97
2018-09-30T08:01:17.942Z,71.17
2018-09-30T08:03:47.238Z,66.50
2018-09-30T08:06:16.313Z,66.82
2018-09-30T08:08:45.567Z,64.45
2018-09-30T08:11:14.592Z,62.88
2018-09-30T08:13:43.762Z,62.28
2018-09-30T08:16:13.250Z,63.21
2018-09-30T08:18:42.400Z,60.75
2018-09-30T08:21:11.418Z,62.29
2018-09-30T08:23:40.578Z,62.15
2018-09-30T08:26:09.611Z,58.67
2018-09-30T08:28:38.830Z,56.70
2018-09-30T08:31:07.950Z,57.90
2018-09-30T08:33:37.024Z,57.50
2018-09-30T08:36:08.384Z,58.36
2018-09-30T08:38:39.050Z,57.28
2018-09-30T08:41:09.419Z,55.90
2018-09-30T08:43:39.800Z,54.89
2018-09-30T08:46:09.202Z,55.45
2018-09-30T08:48:38.624Z,54.53
2018-09-30T08:51:07.741Z,56.58
2018-09-30T08:53:38.073Z,57.49
2018-09-30T08:56:08.144Z,55.62
2018-09-30T08:58:38.349Z,54.91
2018-09-30T09:01:07.491Z,55.32
2018-09-30T09:03:36.696Z,55.53
2018-09-30T09:06:05.758Z,55.28
2018-09-30T09:08:34.858Z,52.82
2018-09-30T09:11:03.867Z,52.59
2018-09-30T09:13:33.068Z,51.05
2018-09-30T09:16:02.086Z,50.10
2018-09-30T09:18:31.138Z,51.00
2018-09-30T09:21:00.184Z,49.09
2018-09-30T09:23:29.169Z,49.99
2018-09-30T09:25:58.280Z,49.87
2018-09-30T09:28:27.378Z,48.21
2018-09-30T09:30:56.451Z,49.24
2018-09-30T09:33:25.511Z,46.78
2018-09-30T09:35:54.610Z,48.03
2018-09-30T09:38:24.035Z,47.23
2018-09-30T09:40:53.053Z,47.29
2018-09-30T09:43:22.040Z,47.35
2018-09-30T09:45:51.231Z,49.01
2018-09-30T09:48:20.288Z,45.70
2018-09-30T09:50:49.287Z,46.84
2018-09-30T09:53:19.121Z,47.73
2018-09-30T09:55:49.065Z,46.50
2018-09-30T09:58:18.070Z,46.65
2018-09-30T10:00:47.975Z,46.12
2018-09-30T10:03:17.587Z,45.83
2018-09-30T10:05:46.831Z,43.99
2018-09-30T10:08:16.763Z,42.98
2018-09-30T10:10:45.946Z,42.83
2018-09-30T10:13:15.195Z,41.48
2018-09-30T10:15:44.343Z,41.49
2018-09-30T10:18:13.407Z,43.91
2018-09-30T10:20:42.542Z,43.45
2018-09-30T10:23:11.697Z,43.06
2018-09-30T10:25:40.932Z,41.37
2018-09-30T10:28:10.136Z,42.43
2018-09-30T10:30:39.491Z,41.80
2018-09-30T10:33:08.671Z,40.87
2018-09-30T10:35:37.787Z,41.88
2018-09-30T10:38:07.079Z,41.59
2018-09-30T10:40:36.291Z,42.67
2018-09-30T10:43:05.413Z,41.39
2018-09-30T10:45:34.572Z,40.89
2018-09-30T10:48:04.055Z,41.67
2018-09-30T10:50:34.368Z,42.34
2018-09-30T10:53:03.419Z,39.70
2018-09-30T10:55:32.811Z,39.99
2018-09-30T10:58:02.010Z,40.81
2018-09-30T11:00:31.190Z,39.59
2018-09-30T11:03:00.453Z,39.14
2018-09-30T11:05:29.650Z,39.84
2018-09-30T11:07:58.916Z,41.51
2018-09-30T11:10:28.207Z,42.56
2018-09-30T11:12:58.242Z,42.36
2018-09-30T11:15:27.496Z,41.30
2018-09-30T11:17:56.704Z,39.55
2018-09-30T11:20:27.718Z,40.19
2018-09-30T11:22:57.192Z,40.67
2018-09-30T11:25:26.359Z,42.20
2018-09-30T11:27:56.514Z,38.49
2018-09-30T11:30:25.669Z,38.46
2018-09-30T11:32:54.789Z,38.52
2018-09-30T11:35:23.985Z,38.54
2018-09-30T11:37:53.307Z,39.91
2018-09-30T11:40:22.483Z,39.66
2018-09-30T11:42:51.624Z,40.41
2018-09-30T11:45:20.780Z,39.04
2018-09-30T11:47:49.891Z,38.75
2018-09-30T11:50:18.989Z,36.89
2018-09-30T11:52:49.435Z,39.93
2018-09-30T11:55:18.492Z,37.74
2018-09-30T11:57:47.920Z,38.77
2018-09-30T12:00:17.287Z,38.57
2018-09-30T12:02:46.459Z,38.02
2018-09-30T12:05:15.619Z,39.08
2018-09-30T12:07:45.537Z,37.75
2018-09-30T12:10:14.651Z,36.33
2018-09-30T12:12:43.818Z,35.83
2018-09-30T12:15:13.467Z,37.00
2018-09-30T12:17:42.558Z,37.30
2018-09-30T12:20:12.605Z,37.78
2018-09-30T12:22:41.779Z,35.59
2018-09-30T12:25:10.755Z,36.50
2018-09-30T12:27:39.803Z,36.92
2018-09-30T12:30:08.905Z,36.36
2018-09-30T12:32:38.010Z,35.58
2018-09-30T12:35:07.373Z,36.60
2018-09-30T12:37:36.570Z,36.19
2018-09-30T12:40:05.937Z,35.40
2018-09-30T12:42:35.210Z,35.52
2018-09-30T12:45:04.322Z,34.87
2018-09-30T12:47:33.410Z,36.73
2018-09-30T12:50:02.528Z,35.53
2018-09-30T12:52:32.294Z,37.31
2018-09-30T12:55:01.309Z,35.94
2018-09-30T12:57:34.146Z,36.35
2018-09-30T13:00:03.289Z,37.16
2018-09-30T13:02:32.556Z,35.48
2018-09-30T13:05:02.617Z,35.75
2018-09-30T13:07:32.631Z,34.78
2018-09-30T13:10:01.741Z,35.97
2018-09-30T13:12:30.980Z,35.07
2018-09-30T13:15:00.030Z,36.35
2018-09-30T13:17:29.266Z,37.06
2018-09-30T13:19:58.391Z,37.29
2018-09-30T13:22:27.486Z,37.30
2018-09-30T13:24:56.564Z,37.05
2018-09-30T13:27:25.671Z,37.77
2018-09-30T13:29:54.725Z,37.01
2018-09-30T13:32:23.889Z,34.78
2018-09-30T13:34:53.066Z,36.16
2018-09-30T13:37:22.248Z,35.24
2018-09-30T13:39:51.255Z,36.64
2018-09-30T13:42:20.843Z,36.80
2018-09-30T13:44:50.570Z,35.46
2018-09-30T13:47:19.638Z,34.82
2018-09-30T13:49:48.669Z,34.63
2018-09-30T13:52:17.845Z,36.80
2018-09-30T13:54:47.035Z,38.52
2018-09-30T13:57:16.760Z,35.29
2018-09-30T13:59:45.854Z,35.62
2018-09-30T14:02:14.940Z,35.78
2018-09-30T14:04:44.030Z,37.61
2018-09-30T14:07:13.186Z,35.91
2018-09-30T14:09:42.393Z,35.31
2018-09-30T14:12:11.465Z,37.04
2018-09-30T14:14:40.562Z,41.12
2018-09-30T14:17:09.677Z,42.68
2018-09-30T14:19:38.934Z,43.00
2018-09-30T14:22:08.039Z,43.41
2018-09-30T14:24:37.207Z,43.61
2018-09-30T14:27:06.461Z,42.71
2018-09-30T14:29:35.681Z,43.16
2018-09-30T14:32:04.924Z,44.79
2018-09-30T14:34:34.027Z,45.96
2018-09-30T14:37:03.106Z,47.20
2018-09-30T14:39:32.163Z,47.06
2018-09-30T14:42:01.327Z,47.44
2018-09-30T14:44:30.410Z,47.94
2018-09-30T14:46:59.478Z,49.70
2018-09-30T14:49:28.617Z,51.50
2018-09-30T14:51:57.704Z,51.93
2018-09-30T14:54:26.854Z,51.55
2018-09-30T14:56:55.840Z,52.83
2018-09-30T14:59:24.919Z,53.58
2018-09-30T15:01:54.112Z,53.32
2018-09-30T15:04:23.309Z,54.42
2018-09-30T15:06:52.331Z,55.11
2018-09-30T15:09:21.561Z,56.58
2018-09-30T15:11:50.587Z,57.84
2018-09-30T15:14:19.660Z,57.18
2018-09-30T15:16:48.767Z,57.96
2018-09-30T15:19:17.848Z,59.39
2018-09-30T15:21:47.129Z,60.40
2018-09-30T15:24:16.386Z,62.62
2018-09-30T15:26:45.433Z,61.77
2018-09-30T15:29:14.602Z,61.50
2018-09-30T15:31:43.710Z,63.56
2018-09-30T15:34:12.729Z,63.92
2018-09-30T15:36:42.929Z,63.88
2018-09-30T15:39:13.214Z,65.53
2018-09-30T15:41:42.687Z,65.65
2018-09-30T15:44:12.561Z,66.74
2018-09-30T15:46:41.780Z,66.92
2018-09-30T15:49:11.059Z,67.61
2018-09-30T15:51:40.159Z,70.43
2018-09-30T15:54:09.357Z,68.06
2018-09-30T15:56:38.428Z,68.75
2018-09-30T15:59:07.510Z,66.46
2018-09-30T16:01:36.647Z,68.64
2018-09-30T16:04:05.633Z,69.54
2018-09-30T16:06:35.661Z,68.81
2018-09-30T16:09:07.044Z,70.15
2018-09-30T16:11:36.461Z,70.86
2018-09-30T16:14:05.670Z,71.35
2018-09-30T16:16:38.148Z,70.82
2018-09-30T16:19:07.957Z,71.98
2018-09-30T16:21:38.002Z,72.69
2018-09-30T16:24:08.257Z,73.56
2018-09-30T16:26:37.693Z,74.51
2018-09-30T16:29:07.081Z,72.89
2018-09-30T16:31:37.147Z,74.39
2018-09-30T16:34:07.649Z,75.04
2018-09-30T16:36:37.349Z,74.37
2018-09-30T16:39:10.274Z,74.29
2018-09-30T16:41:40.045Z,74.90
2018-09-30T16:44:09.295Z,74.51
2018-09-30T16:46:39.462Z,73.41
2018-09-30T16:49:08.638Z,71.82
2018-09-30T16:51:37.797Z,72.83
2018-09-30T16:54:07.901Z,72.00
2018-09-30T16:56:39.166Z,72.07
2018-09-30T16:59:08.306Z,73.68
2018-09-30T17:01:37.421Z,75.09
2018-09-30T17:04:06.619Z,71.99
2018-09-30T17:06:35.945Z,72.33
2018-09-30T17:09:06.662Z,74.31
2018-09-30T17:11:35.986Z,76.42
2018-09-30T17:14:06.695Z,74.12
2018-09-30T17:16:37.397Z,74.64
2018-09-30T17:19:06.591Z,76.98
2018-09-30T17:21:35.690Z,76.92
2018-09-30T17:24:05.646Z,76.46
2018-09-30T17:26:34.832Z,77.65
2018-09-30T17:29:03.938Z,77.36
2018-09-30T17:31:33.252Z,77.15
2018-09-30T17:34:02.821Z,78.47
2018-09-30T17:36:32.772Z,79.69
2018-09-30T17:39:02.279Z,79.63
2018-09-30T17:41:31.674Z,79.87
2018-09-30T17:44:01.558Z,80.71
2018-09-30T17:46:30.751Z,81.16
2018-09-30T17:49:00.227Z,79.51
2018-09-30T17:51:29.405Z,79.60
2018-09-30T17:53:58.781Z,80.41
2018-09-30T17:56:28.393Z,81.00
2018-09-30T17:58:59.388Z,80.65
2018-09-30T18:01:28.794Z,81.22
2018-09-30T18:03:58.598Z,80.18
2018-09-30T18:06:28.421Z,80.45
2018-09-30T18:08:59.814Z,80.40
2018-09-30T18:11:29.472Z,79.75
2018-09-30T18:14:00.356Z,81.98
2018-09-30T18:16:30.039Z,82.64
2018-09-30T18:19:00.389Z,82.74
2018-09-30T18:21:30.080Z,82.21
2018-09-30T18:24:02.003Z,82.45
2018-09-30T18:26:32.836Z,82.82
2018-09-30T18:29:06.151Z,82.47
2018-09-30T18:31:35.644Z,82.97
2018-09-30T18:34:07.361Z,83.83
2018-09-30T18:36:36.693Z,82.61
2018-09-30T18:39:08.573Z,83.29
2018-09-30T18:41:40.488Z,83.67
2018-09-30T18:44:12.233Z,84.62
2018-09-30T18:46:41.637Z,83.91
2018-09-30T18:49:11.334Z,83.66
2018-09-30T18:51:41.620Z,83.67
2018-09-30T18:54:11.484Z,84.39
2018-09-30T18:56:41.208Z,82.87
2018-09-30T18:59:11.318Z,83.68
2018-09-30T19:01:40.664Z,84.66
2018-09-30T19:04:12.570Z,84.38
2018-09-30T19:06:42.146Z,84.64
2018-09-30T19:09:12.086Z,85.31
2018-09-30T19:11:41.601Z,84.91
2018-09-30T19:14:11.087Z,84.82
2018-09-30T19:16:40.771Z,85.62
2018-09-30T19:19:10.181Z,85.96
2018-09-30T19:21:39.616Z,85.85
2018-09-30T19:24:08.953Z,86.08
2018-09-30T19:26:39.706Z,87.08
2018-09-30T19:29:09.286Z,86.43
2018-09-30T19:31:39.863Z,86.89
2018-09-30T19:34:09.655Z,85.83
2018-09-30T19:36:39.656Z,87.10
2018-09-30T19:39:11.566Z,87.18
2018-09-30T19:41:41.587Z,85.83
2018-09-30T19:44:12.653Z,86.61
2018-09-30T19:46:42.278Z,85.78
2018-09-30T19:49:12.710Z,86.03
2018-09-30T19:51:42.212Z,85.64
2018-09-30T19:54:12.602Z,87.87
2018-09-30T19:56:42.155Z,87.05
2018-09-30T19:59:11.929Z,87.56
2018-09-30T20:01:41.543Z,87.53
2018-09-30T20:04:12.069Z,87.23
2018-09-30T20:06:41.549Z,87.34
2018-09-30T20:09:13.063Z,87.22
2018-09-30T20:11:42.667Z,87.92
2018-09-30T20:14:13.178Z,87.48
2018-09-30T20:16:42.878Z,87.97
2018-09-30T20:19:12.356Z,87.53
2018-09-30T20:21:42.231Z,88.01
2018-09-30T20:24:11.518Z,87.61
2018-09-30T20:26:40.626Z,87.19
2018-09-30T20:29:10.718Z,88.18
2018-09-30T20:31:40.048Z,88.25
2018-09-30T20:34:09.539Z,88.32
2018-09-30T20:36:38.922Z,89.36
2018-09-30T20:39:08.611Z,88.29
2018-09-30T20:41:38.133Z,88.82
2018-09-30T20:44:07.325Z,88.63
2018-09-30T20:46:36.430Z,88.36
2018-09-30T20:49:05.708Z,88.67
2018-09-30T20:51:34.954Z,89.21
2018-09-30T20:54:04.044Z,89.21
2018-09-30T20:56:33.088Z,88.65
2018-09-30T20:59:02.175Z,88.49
2018-09-30T21:01:31.202Z,89.44
2018-09-30T21:04:00.247Z,89.11
2018-09-30T21:06:32.490Z,90.11
2018-09-30T21:09:01.564Z,90.23
2018-09-30T21:11:30.848Z,90.69
2018-09-30T21:13:59.877Z,90.74
2018-09-30T21:16:29.064Z,90.06
2018-09-30T21:18:58.173Z,90.45
2018-09-30T21:21:27.327Z,90.09
2018-09-30T21:23:56.553Z,91.01
2018-09-30T21:26:25.631Z,89.52
2018-09-30T21:28:54.779Z,90.49
2018-09-30T21:31:30.715Z,91.49
2018-09-30T21:34:01.044Z,92.47
2018-09-30T21:36:31.167Z,91.20
2018-09-30T21:39:01.433Z,90.42
2018-09-30T21:41:30.775Z,90.98
2018-09-30T21:44:00.265Z,90.59
2018-09-30T21:46:29.590Z,91.17
2018-09-30T21:48:58.959Z,90.57
2018-09-30T21:51:28.370Z,91.00
2018-09-30T21:53:57.766Z,90.62
2018-09-30T21:56:27.298Z,91.87
2018-09-30T21:58:56.879Z,91.88
2018-09-30T22:01:26.437Z,91.77
2018-09-30T22:03:55.778Z,91.49
2018-09-30T22:06:25.012Z,91.58
2018-09-30T22:08:54.344Z,91.53
2018-09-30T22:11:23.659Z,91.38
2018-09-30T22:13:52.897Z,91.86
2018-09-30T22:16:22.770Z,91.77
2018-09-30T22:18:52.573Z,91.61
2018-09-30T22:21:21.842Z,92.10
2018-09-30T22:23:51.190Z,92.22
2018-09-30T22:26:21.698Z,92.11
2018-09-30T22:28:50.930Z,92.07
2018-09-30T22:31:20.778Z,92.91
2018-09-30T22:33:50.177Z,93.44
2018-09-30T22:36:19.796Z,93.49
2018-09-30T22:38:49.138Z,92.81
2018-09-30T22:41:18.436Z,92.94
2018-09-30T22:43:47.761Z,91.99
2018-09-30T22:46:17.096Z,92.18
2018-09-30T22:48:46.550Z,92.35
2018-09-30T22:51:16.557Z,92.41
2018-09-30T22:53:45.814Z,92.85
2018-09-30T22:56:15.632Z,93.42
2018-09-30T22:58:45.099Z,93.31
2018-09-30T23:01:14.443Z,92.60
2018-09-30T23:03:43.859Z,93.87
2018-09-30T23:06:13.166Z,93.39
2018-09-30T23:08:42.483Z,93.00
2018-09-30T23:11:11.867Z,93.19
2018-09-30T23:13:41.337Z,93.94
2018-09-30T23:16:10.866Z,93.65
2018-09-30T23:18:40.334Z,94.12
2018-09-30T23:21:10.184Z,94.03
2018-09-30T23:23:39.563Z,93.56
2018-09-30T23:26:08.793Z,93.95
2018-09-30T23:28:38.120Z,94.17
2018-09-30T23:31:08.039Z,94.09
2018-09-30T23:33:37.383Z,94.41
2018-09-30T23:36:06.813Z,94.43
2018-09-30T23:38:36.295Z,95.67
2018-09-30T23:41:06.717Z,95.56
2018-09-30T23:43:36.104Z,95.42
2018-09-30T23:46:05.521Z,95.78
2018-09-30T23:48:35.346Z,95.36
2018-09-30T23:51:04.730Z,95.20
2018-09-30T23:53:34.335Z,96.11
2018-09-30T23:56:03.676Z,96.31
2018-09-30T23:58:33.396Z,96.55
